Ridgeview, South Dakota
Current Conditions -  °F | °C
As of 7:52 PM on Saturday 22 Nov 2014 (Local Time) from KMBG Reporting Station
Clear Clear  
Wind Chill: 30°   Ceiling: Unl
Heat Index: 36°   Visibility: 10mi
Dew Point: 31°   Wind: 7mph
Humidity: 82%   Direction: 140°SE
Pressure: 29.34"   Gusts: NA
Location:  45.09°N, 100.8°W
Report Text: KMBG 230252Z AUTO 14006KT 10SM CLR 02/M01 A2934 RMK AO2 SLP951 T00221006 58006
Loading
Personal Weather Stations






























Interactive Weather Map New forecast layout! Learn more

10-Day Weather Forecast

Advertisements
Track Severe Weather on mobile